Sunday, April 20, 2014
00:56 UTC
  |  Log In   |  Register Free
Airport Search:

La Guardia Airport
(KLGA)

FAA data valid effective April 3, 2014 until May 29, 2014 (unless otherwise noted).

 
 
 
 
 
 
 
 
 
 
 
 
 
 

Current Aviation Weather for La Guardia Airport (KLGA)

The most recent METAR observation for KLGA was updated at: 2351 UTC
METAR Summary (Translated METAR)
KLGA
192351Z 08006KT 10SM BKN260 15/M04 A3026 RMK AO2 SLP247 T01501039 10183 20144 53012
KTEB
(9.6 nm NW from KLGA)
192351Z 04004KT 10SM CLR 17/M07 A3025 RMK AO2 SLP244 T01721067 10206 20172 51012
TAF Summary (Translated TAF)
KLGA
192036Z 1921/2018 36010G16KT P6SM BKN250 FM192300 01010KT P6SM BKN250 FM200400 04009KT P6SM SKC FM201500 07012KT P6SM SKC
KTEB
(9.6 nm NW from KLGA)
192036Z 1921/2018 02012G18KT P6SM BKN250 FM192200 02009KT P6SM BKN250 FM200500 VRB05KT P6SM SKC FM201400 08008KT P6SM SKC
  Airport Weather Conditions for KLGA

 Current Weather at LGA
59° F
Mostly Cloudy
East winds at 6.9 mph
LGA NOAA Radar

Pressure: 30.26 in
Humidity: 27%
Wind: East at 6.9 MPH (6 KT)
Dew Point: 25.0°F
Visibility: 10.00 mi


Airport Weather Forecast for KLGA

Translated METAR and TAF for KLGA
Translated METAR for KLGA (0056 UTC 20 April 2014)
found at http://aviationweather.gov/adds/metars/
 
METAR text: KLGA 200051Z 09005KT 10SM BKN260 14/M03 A3029 RMK AO2 SLP256 T01391028
Conditions at: KLGA (NYC/LA GUARDIA , NY, US) observed 0051 UTC 20 April 2014
Temperature: 13.9°C (57°F)
Dewpoint: -2.8°C (27°F) [RH = 31%]
Pressure (altimeter): 30.29 inches Hg (1025.8 mb)
[Sea-level pressure: 1025.6 mb]
Winds: from the E (90 degrees) at 6 MPH (5 knots; 2.6 m/s)
Visibility: 10 or more miles (16+ km)
Ceiling: 26000 feet AGL
Clouds: broken clouds at 26000 feet AGL
Weather: no significant weather observed at this time
Translated TAF for KLGA
Forecast for: KLGA (NYC/LA GUARDIA , NY, US)
TAF Text: KLGA 192339Z 2000/2024 06007KT P6SM BKN250
Forecast period: 0000 to 1300 UTC 20 April 2014
Forecast type: FROM: standard forecast or significant change
Winds: from the ENE (60 degrees) at 8 MPH (7 knots; 3.6 m/s)
Visibility: 6 or more miles (10+ km)
Ceiling: 25000 feet AGL
Clouds: broken clouds at 25000 feet AGL
Weather: no significant weather forecast for this period
TAF Text: FM201300 06010KT P6SM SKC
Forecast period: 1300 to 1700 UTC 20 April 2014
Forecast type: FROM: standard forecast or significant change
Winds: from the ENE (60 degrees) at 12 MPH (10 knots; 5.2 m/s)
Visibility: 6 or more miles (10+ km)
Clouds: clear skies
Weather: no significant weather forecast for this period
TAF Text: FM201700 10010KT P6SM SKC
Forecast period: 1700 to 2000 UTC 20 April 2014
Forecast type: FROM: standard forecast or significant change
Winds: from the E (100 degrees) at 12 MPH (10 knots; 5.2 m/s)
Visibility: 6 or more miles (10+ km)
Clouds: clear skies
Weather: no significant weather forecast for this period
TAF Text: FM202000 14012KT P6SM SKC
Forecast period: 2000 UTC 20 April 2014 to 0000 UTC 21 April 2014
Forecast type: FROM: standard forecast or significant change
Winds: from the SE (140 degrees) at 14 MPH (12 knots; 6.2 m/s)
Visibility: 6 or more miles (10+ km)
Clouds: clear skies
Weather: no significant weather forecast for this period

Find All Airport Services Find A Hotel Find A Rental Car Find A Golf Course Find A Restaurant $100 Hamburger



FBO's on the Field
FBO Company Facility Photos Services Transportation Aviation Fuel Prices: Prices include tax
Catering Weather Repair Courtesy Rental Type 100LL JetA JetA+ MOGAS 8087
 
Sheltair

This FBO has not yet been rated
FS:Avfuel
Last Updated: Apr-15
Login to update fuel prices
SS:
Contact SheltairMore FBO Information
 
Add another FBO Facility Photos Catering Weather Repair Courtesy Rental Type 100LL JetA JetA+ MOGAS 8087
Services Transportation Aviation Fuel Prices: Prices include tax


GlobalAir.com Airport Resource Center model-print
model-print
model-print
model-print